Time;durP1;ratioP1;P1;durP2;ratioP2;P2;SDS_P1;SDS_P2;PMS_P1;PMS_P2;Temp;Humidity;BMP_temperature;BMP_pressure;BME280_temperature;BME280_humidity;BME280_pressure;Samples;Min_cycle;Max_cycle;Signal;HPM_P1;HPM_P2
2023/09/04 00:00:08;;;;;;;5.72;3.85;;;16.30;73.40;;;;;;9179387;19;20107;-65
2023/09/04 00:03:21;;;;;;;5.82;4.32;;;16.30;73.30;;;;;;9178840;19;20029;-64
2023/09/04 00:06:29;;;;;;;8.07;4.10;;;16.20;74.00;;;;;;9180447;19;20018;-64
2023/09/04 00:09:34;;;;;;;7.15;4.30;;;16.20;73.40;;;;;;9180856;19;20059;-65
2023/09/04 00:12:44;;;;;;;5.97;4.43;;;16.20;73.50;;;;;;9180266;19;20133;-64
2023/09/04 00:15:53;;;;;;;8.88;4.53;;;16.20;73.70;;;;;;9179199;19;20625;-65
2023/09/04 00:19:00;;;;;;;8.48;3.97;;;16.10;73.60;;;;;;9179826;19;20002;-64
2023/09/04 00:22:06;;;;;;;5.82;4.00;;;16.00;73.50;;;;;;9177498;19;20622;-64
2023/09/04 00:25:13;;;;;;;8.95;4.25;;;16.00;73.60;;;;;;9178325;19;20464;-64
2023/09/04 00:28:21;;;;;;;8.73;4.68;;;16.00;73.70;;;;;;9175260;19;20074;-64
2023/09/04 00:31:29;;;;;;;7.13;4.53;;;16.00;73.90;;;;;;9176898;19;20357;-64
2023/09/04 00:34:35;;;;;;;6.85;4.60;;;16.00;73.80;;;;;;9178441;19;20014;-63
2023/09/04 00:37:43;;;;;;;9.00;4.97;;;15.90;73.90;;;;;;9176461;19;20022;-64
2023/09/04 00:40:48;;;;;;;7.20;5.20;;;15.90;74.00;;;;;;9178099;19;20010;-64
2023/09/04 00:43:58;;;;;;;6.55;4.95;;;15.90;74.10;;;;;;9178049;19;20011;-64
2023/09/04 00:47:04;;;;;;;7.43;5.07;;;15.90;74.20;;;;;;9178143;19;20022;-63
2023/09/04 00:50:17;;;;;;;8.65;4.65;;;15.80;74.10;;;;;;9177928;19;20383;-64
2023/09/04 00:53:23;;;;;;;7.90;4.72;;;15.80;74.20;;;;;;9177339;19;20006;-64
2023/09/04 00:56:30;;;;;;;7.78;4.90;;;15.80;74.20;;;;;;9177776;19;20376;-63
2023/09/04 00:59:40;;;;;;;8.50;5.03;;;15.80;74.20;;;;;;9180181;19;20007;-64
2023/09/04 01:03:03;;;;;;;7.45;4.82;;;15.80;74.30;;;;;;9178712;19;20015;-64
2023/09/04 01:06:10;;;;;;;5.15;4.20;;;15.70;74.20;;;;;;9178798;19;20007;-63
2023/09/04 01:09:19;;;;;;;12.65;5.55;;;15.70;74.30;;;;;;9177261;19;20025;-63
2023/09/04 01:12:30;;;;;;;7.63;4.88;;;15.70;74.30;;;;;;9177489;19;20467;-63
2023/09/04 01:15:41;;;;;;;6.20;4.93;;;15.60;74.40;;;;;;9177424;19;20487;-64
2023/09/04 01:18:47;;;;;;;10.50;4.88;;;15.60;74.50;;;;;;9177391;19;20082;-64
2023/09/04 01:21:58;;;;;;;6.60;4.57;;;15.60;74.50;;;;;;9176138;19;20021;-63
2023/09/04 01:25:03;;;;;;;11.55;5.10;;;15.60;74.60;;;;;;9178373;19;20011;-64
2023/09/04 01:28:17;;;;;;;6.95;4.85;;;15.50;74.50;;;;;;9172299;19;20025;-63
2023/09/04 01:31:27;;;;;;;9.10;4.72;;;15.50;74.60;;;;;;9177801;19;20380;-64
2023/09/04 01:34:40;;;;;;;6.85;5.03;;;15.50;74.70;;;;;;9176388;19;20074;-65
2023/09/04 01:37:49;;;;;;;7.20;5.10;;;15.50;74.70;;;;;;9177227;19;20029;-63
2023/09/04 01:40:56;;;;;;;8.88;5.20;;;15.50;74.80;;;;;;9176852;19;20025;-63
2023/09/04 01:44:01;;;;;;;5.65;4.70;;;15.40;74.70;;;;;;9177599;19;20014;-64
2023/09/04 01:47:09;;;;;;;8.55;5.72;;;15.40;74.70;;;;;;9177429;19;20475;-64
2023/09/04 01:50:14;;;;;;;12.10;5.05;;;15.40;74.80;;;;;;9176109;19;20044;-64
2023/09/04 01:53:24;;;;;;;7.72;5.13;;;15.40;74.80;;;;;;9176190;19;20022;-64
2023/09/04 01:56:29;;;;;;;6.57;4.75;;;15.30;74.90;;;;;;9175624;19;20011;-64
2023/09/04 01:59:37;;;;;;;5.90;4.95;;;15.30;74.90;;;;;;9175309;19;20359;-64
2023/09/04 02:02:43;;;;;;;6.35;5.30;;;15.30;74.90;;;;;;9174319;19;20033;-64
2023/09/04 02:05:51;;;;;;;6.15;5.10;;;15.30;75.00;;;;;;9177216;19;20427;-65
2023/09/04 02:08:59;;;;;;;6.43;4.82;;;15.20;75.00;;;;;;9176434;19;20029;-65
2023/09/04 02:12:07;;;;;;;9.93;5.75;;;15.30;75.10;;;;;;9175512;19;20044;-64
2023/09/04 02:15:12;;;;;;;7.35;5.47;;;15.20;75.10;;;;;;9184216;19;20073;-65
2023/09/04 02:18:20;;;;;;;12.70;4.88;;;15.20;75.20;;;;;;9183907;19;20040;-64
2023/09/04 02:21:26;;;;;;;9.18;5.68;;;15.20;75.20;;;;;;9183756;19;20018;-65
2023/09/04 02:24:36;;;;;;;6.85;5.10;;;15.10;75.20;;;;;;9182765;19;20470;-63
2023/09/04 02:27:41;;;;;;;11.25;6.28;;;15.10;75.20;;;;;;9179758;19;20133;-64
2023/09/04 02:30:49;;;;;;;6.38;5.05;;;15.10;75.20;;;;;;9186471;19;20014;-63
2023/09/04 02:33:55;;;;;;;10.40;6.38;;;15.10;75.30;;;;;;9183565;19;20033;-64
2023/09/04 02:37:03;;;;;;;10.43;5.07;;;15.10;75.30;;;;;;9183780;19;20010;-64
2023/09/04 02:40:13;;;;;;;9.27;5.72;;;15.10;75.40;;;;;;9185560;19;20014;-65
2023/09/04 02:43:20;;;;;;;7.82;5.90;;;15.00;75.50;;;;;;9181137;19;20026;-63
2023/09/04 02:46:31;;;;;;;6.55;4.78;;;15.00;75.50;;;;;;9183240;19;20389;-65
2023/09/04 02:49:39;;;;;;;7.95;5.43;;;15.00;75.50;;;;;;9184174;19;20009;-64
2023/09/04 02:52:44;;;;;;;7.10;5.38;;;15.00;75.50;;;;;;9183001;19;20021;-65
2023/09/04 02:55:54;;;;;;;6.50;4.85;;;14.90;75.50;;;;;;9183677;19;20376;-65
2023/09/04 02:58:59;;;;;;;11.95;5.68;;;14.90;75.60;;;;;;9180490;19;20014;-68
2023/09/04 03:02:07;;;;;;;8.55;5.32;;;14.90;75.60;;;;;;9181520;19;20365;-66
2023/09/04 03:05:12;;;;;;;8.73;5.80;;;14.90;75.60;;;;;;9181993;19;20476;-64
2023/09/04 03:08:20;;;;;;;7.68;5.40;;;14.90;75.70;;;;;;9183946;19;20014;-63
2023/09/04 03:11:28;;;;;;;9.30;5.63;;;14.80;75.60;;;;;;9181908;19;20010;-63
2023/09/04 03:14:36;;;;;;;7.68;5.20;;;14.80;75.70;;;;;;9182150;19;20369;-63
2023/09/04 03:17:42;;;;;;;7.55;5.40;;;14.80;75.70;;;;;;9182116;19;20014;-64
2023/09/04 03:20:50;;;;;;;7.82;4.93;;;14.80;75.80;;;;;;9181820;19;20019;-64
2023/09/04 03:23:55;;;;;;;7.47;5.50;;;14.70;75.80;;;;;;9178998;19;20018;-64
2023/09/04 03:27:06;;;;;;;6.60;5.07;;;14.70;75.80;;;;;;9177841;19;20030;-63
2023/09/04 03:30:14;;;;;;;10.55;5.88;;;14.70;75.90;;;;;;9181966;19;20082;-64
2023/09/04 03:33:22;;;;;;;10.48;5.65;;;14.70;75.90;;;;;;9181650;19;20479;-64
2023/09/04 03:36:28;;;;;;;10.98;5.90;;;14.60;75.80;;;;;;9180353;19;20023;-63
2023/09/04 03:39:38;;;;;;;7.47;5.47;;;14.60;75.90;;;;;;9182627;19;20023;-68
2023/09/04 03:42:46;;;;;;;6.88;4.95;;;14.60;76.00;;;;;;9182099;19;20018;-64
2023/09/04 03:45:54;;;;;;;7.78;5.63;;;14.60;76.00;;;;;;9183214;19;20380;-63
2023/09/04 03:48:59;;;;;;;9.50;6.10;;;14.60;76.00;;;;;;9182200;19;20397;-65
2023/09/04 03:52:07;;;;;;;6.43;5.07;;;14.50;76.00;;;;;;9183891;19;20023;-64
2023/09/04 03:55:14;;;;;;;8.55;5.80;;;14.50;76.10;;;;;;9182785;19;20133;-68
2023/09/04 03:58:24;;;;;;;10.38;5.75;;;14.50;76.10;;;;;;9184995;19;20018;-63
2023/09/04 04:01:31;;;;;;;9.60;5.40;;;14.40;76.20;;;;;;9184224;19;20438;-64
2023/09/04 04:04:39;;;;;;;9.20;5.25;;;14.40;76.80;;;;;;9179427;19;20061;-64
2023/09/04 04:07:44;;;;;;;9.55;5.68;;;14.40;76.20;;;;;;9184003;19;20417;-64
2023/09/04 04:10:52;;;;;;;7.00;5.05;;;14.40;76.30;;;;;;9183156;19;20018;-62
2023/09/04 04:14:01;;;;;;;7.32;5.55;;;14.30;76.20;;;;;;9180461;19;20019;-62
2023/09/04 04:17:08;;;;;;;6.80;5.03;;;14.30;76.30;;;;;;9180617;19;20011;-62
2023/09/04 04:20:15;;;;;;;8.85;5.97;;;14.30;76.30;;;;;;9182741;19;20015;-62
2023/09/04 04:23:22;;;;;;;8.02;4.90;;;14.30;76.30;;;;;;9179241;19;20021;-69
2023/09/04 04:26:27;;;;;;;11.77;5.80;;;14.30;76.30;;;;;;9177663;19;20029;-65
2023/09/04 04:29:37;;;;;;;7.55;5.47;;;14.30;76.40;;;;;;9179734;19;20029;-64
2023/09/04 04:32:42;;;;;;;7.07;5.38;;;14.20;76.40;;;;;;9181355;19;20018;-63
2023/09/04 04:35:54;;;;;;;8.57;5.82;;;14.20;76.40;;;;;;9177298;19;20507;-63
2023/09/04 04:39:01;;;;;;;7.65;5.32;;;14.20;76.40;;;;;;9176789;19;20079;-66
2023/09/04 04:42:11;;;;;;;9.65;6.07;;;14.20;76.50;;;;;;9178646;19;20018;-65
2023/09/04 04:45:20;;;;;;;8.07;5.32;;;14.10;76.50;;;;;;9179468;19;20025;-65
2023/09/04 04:48:29;;;;;;;8.80;5.40;;;14.10;76.50;;;;;;9180233;19;20018;-63
2023/09/04 04:51:34;;;;;;;11.77;6.47;;;14.10;76.50;;;;;;9178673;19;20376;-63
2023/09/04 04:54:42;;;;;;;6.88;5.35;;;14.10;76.60;;;;;;9178197;19;20011;-63
2023/09/04 04:57:48;;;;;;;8.30;6.20;;;14.00;76.60;;;;;;9177832;19;20014;-62
2023/09/04 05:00:58;;;;;;;12.23;6.15;;;14.00;76.60;;;;;;9178729;19;20011;-64
2023/09/04 05:04:04;;;;;;;11.75;6.28;;;14.00;76.80;;;;;;9176800;19;20015;-64
2023/09/04 05:07:13;;;;;;;12.93;5.93;;;14.00;76.90;;;;;;9177324;19;20014;-65
2023/09/04 05:10:19;;;;;;;9.48;6.15;;;14.00;76.90;;;;;;9177200;19;20511;-63
2023/09/04 05:13:26;;;;;;;10.25;6.05;;;14.00;76.90;;;;;;9178327;19;20011;-65
2023/09/04 05:16:35;;;;;;;8.38;6.07;;;14.00;76.90;;;;;;9177313;19;20023;-64
2023/09/04 05:19:42;;;;;;;7.72;6.18;;;14.00;77.20;;;;;;9176890;19;20029;-64
2023/09/04 05:22:48;;;;;;;8.75;6.28;;;14.00;77.20;;;;;;9177427;19;20022;-64
2023/09/04 05:25:56;;;;;;;10.15;6.78;;;14.00;77.30;;;;;;9172006;19;20018;-63
2023/09/04 05:29:01;;;;;;;12.75;7.15;;;13.90;77.30;;;;;;9179587;19;20013;-64
2023/09/04 05:32:11;;;;;;;10.32;6.65;;;13.90;77.50;;;;;;9178323;19;20014;-63
2023/09/04 05:35:17;;;;;;;9.32;7.38;;;14.00;77.60;;;;;;9178637;19;20111;-64
2023/09/04 05:38:24;;;;;;;10.95;7.28;;;13.90;77.50;;;;;;9174433;19;20026;-63
2023/09/04 05:41:30;;;;;;;12.98;7.45;;;14.00;77.90;;;;;;9175176;19;20015;-63
2023/09/04 05:44:37;;;;;;;9.80;7.40;;;14.00;77.70;;;;;;9175302;19;20025;-63
2023/09/04 05:47:45;;;;;;;10.48;7.93;;;14.00;77.90;;;;;;9180086;19;20443;-63
2023/09/04 05:50:53;;;;;;;16.05;8.02;;;14.10;78.20;;;;;;9186911;19;20029;-65
2023/09/04 05:53:58;;;;;;;13.68;8.23;;;14.00;78.00;;;;;;9185837;19;20697;-64
2023/09/04 05:57:06;;;;;;;14.40;7.90;;;14.10;78.40;;;;;;9187332;19;20486;-67
2023/09/04 06:00:13;;;;;;;15.93;8.95;;;14.10;78.50;;;;;;9184742;19;20043;-64
2023/09/04 06:03:25;;;;;;;13.15;9.45;;;14.10;78.50;;;;;;9183647;19;20010;-63
2023/09/04 06:06:31;;;;;;;13.23;9.48;;;14.20;78.70;;;;;;9183880;19;20081;-64
2023/09/04 06:09:40;;;;;;;15.07;9.15;;;14.30;79.20;;;;;;9165253;19;20583;-63
2023/09/04 06:12:48;;;;;;;16.80;10.35;;;14.30;79.10;;;;;;9170578;19;20480;-63
2023/09/04 06:15:55;;;;;;;17.13;10.60;;;14.50;79.50;;;;;;9172499;19;20019;-65
2023/09/04 06:19:03;;;;;;;20.77;11.35;;;14.60;79.90;;;;;;9173763;19;20022;-66
2023/09/04 06:22:11;;;;;;;16.13;11.40;;;14.70;80.40;;;;;;9174572;19;20500;-67
2023/09/04 06:25:17;;;;;;;18.08;11.93;;;14.90;80.30;;;;;;9175358;19;20026;-68
2023/09/04 06:28:26;;;;;;;17.48;10.25;;;15.20;80.30;;;;;;9179558;19;20010;-66
2023/09/04 06:31:31;;;;;;;12.40;8.90;;;15.30;80.30;;;;;;9184580;19;20023;-66
2023/09/04 06:34:41;;;;;;;15.70;9.40;;;15.50;80.80;;;;;;9184807;19;20021;-68
2023/09/04 06:37:47;;;;;;;13.45;7.63;;;15.80;81.10;;;;;;9181588;19;20022;-68
2023/09/04 06:40:57;;;;;;;13.48;7.55;;;16.00;81.00;;;;;;9181934;19;20015;-68
2023/09/04 06:44:03;;;;;;;11.18;7.20;;;16.30;81.10;;;;;;9179985;19;20670;-69
2023/09/04 06:47:11;;;;;;;13.70;7.22;;;16.40;81.00;;;;;;9180362;19;20010;-68
2023/09/04 06:50:19;;;;;;;8.50;6.15;;;16.70;80.90;;;;;;9180021;19;20060;-68
2023/09/04 06:53:26;;;;;;;11.27;7.22;;;16.90;80.90;;;;;;9177345;19;20505;-68
2023/09/04 06:56:32;;;;;;;11.52;6.72;;;17.00;80.70;;;;;;9175817;19;20022;-69
2023/09/04 06:59:39;;;;;;;7.90;6.70;;;17.30;81.40;;;;;;9177602;19;20014;-68
2023/09/04 07:02:44;;;;;;;12.70;5.97;;;17.50;81.40;;;;;;9182155;19;20017;-70
2023/09/04 07:05:54;;;;;;;11.48;6.55;;;17.60;81.20;;;;;;9181457;19;20010;-67
2023/09/04 07:09:00;;;;;;;12.90;7.25;;;17.80;82.00;;;;;;9184129;19;20018;-67
2023/09/04 07:12:11;;;;;;;8.75;5.95;;;17.90;82.90;;;;;;9182879;19;20018;-68
2023/09/04 07:15:16;;;;;;;11.18;5.93;;;18.10;82.80;;;;;;9184501;19;20011;-66
2023/09/04 07:18:23;;;;;;;8.13;5.15;;;18.30;83.50;;;;;;9183978;19;20011;-66
2023/09/04 07:21:31;;;;;;;6.50;4.63;;;18.50;81.70;;;;;;9181477;19;20360;-67
2023/09/04 07:24:39;;;;;;;10.60;4.82;;;18.60;83.10;;;;;;9180763;19;20010;-64
2023/09/04 07:27:44;;;;;;;6.68;4.45;;;18.70;80.80;;;;;;9175375;19;20103;-65
2023/09/04 07:30:51;;;;;;;6.00;4.32;;;18.90;80.30;;;;;;9175993;19;20007;-64
2023/09/04 07:33:57;;;;;;;9.07;4.72;;;18.90;80.30;;;;;;9177958;19;20475;-65
2023/09/04 07:37:07;;;;;;;18.27;5.45;;;19.00;80.60;;;;;;9179214;19;20010;-64
2023/09/04 07:40:13;;;;;;;10.98;5.00;;;19.10;80.30;;;;;;9181034;19;20026;-65
2023/09/04 07:43:21;;;;;;;7.72;4.57;;;19.10;80.30;;;;;;9179935;19;20018;-65
2023/09/04 07:46:26;;;;;;;5.88;4.53;;;19.20;81.30;;;;;;9177232;19;20048;-66
2023/09/04 07:49:34;;;;;;;8.10;4.43;;;19.10;80.80;;;;;;9179349;19;20022;-68
2023/09/04 07:52:42;;;;;;;7.72;4.80;;;19.30;79.40;;;;;;9180633;19;20018;-67
2023/09/04 07:55:51;;;;;;;9.35;4.50;;;19.20;76.80;;;;;;9181386;19;20022;-64
2023/09/04 07:58:59;;;;;;;5.40;4.32;;;19.20;76.80;;;;;;9180896;19;20017;-66
2023/09/04 08:02:06;;;;;;;8.27;5.03;;;19.30;77.10;;;;;;9177878;19;20029;-66
2023/09/04 08:05:12;;;;;;;6.55;4.47;;;19.40;77.10;;;;;;9178925;19;20029;-66
2023/09/04 08:08:22;;;;;;;15.63;4.88;;;19.40;77.00;;;;;;9179176;19;20011;-67
2023/09/04 08:11:27;;;;;;;8.80;5.13;;;19.50;77.30;;;;;;9177652;19;20022;-67
2023/09/04 08:14:36;;;;;;;7.57;4.68;;;19.50;77.30;;;;;;9181396;19;20011;-67
2023/09/04 08:17:45;;;;;;;8.43;4.50;;;19.60;77.10;;;;;;9179776;19;20035;-68
2023/09/04 08:20:53;;;;;;;10.55;4.75;;;19.70;77.20;;;;;;9178791;19;20015;-68
2023/09/04 08:24:01;;;;;;;7.45;4.50;;;19.70;77.40;;;;;;9181137;19;20991;-67
2023/09/04 08:27:08;;;;;;;9.65;4.45;;;19.90;77.60;;;;;;9172643;19;20015;-67
2023/09/04 08:30:14;;;;;;;5.00;4.20;;;20.00;77.40;;;;;;9179147;19;20098;-70
2023/09/04 08:33:32;;;;;;;10.80;4.30;;;20.10;77.30;;;;;;9219225;19;20707;-68
2023/09/04 08:36:40;;;;;;;8.57;3.95;;;20.30;77.30;;;;;;9222409;19;20033;-67
2023/09/04 08:39:45;;;;;;;7.35;4.38;;;20.40;77.80;;;;;;9223365;19;20011;-66
2023/09/04 08:42:53;;;;;;;7.15;4.32;;;20.70;78.00;;;;;;9222962;19;20360;-66
2023/09/04 08:46:02;;;;;;;7.97;3.92;;;20.90;78.10;;;;;;9222056;19;20014;-66
2023/09/04 08:49:17;;;;;;;7.32;3.40;;;21.10;78.60;;;;;;9218142;19;20010;-68
2023/09/04 08:52:24;;;;;;;6.43;3.63;;;21.30;79.00;;;;;;9219739;19;20018;-66
2023/09/04 08:55:31;;;;;;;6.60;4.10;;;21.50;76.40;;;;;;9218863;19;20558;-68
2023/09/04 08:58:36;;;;;;;8.38;3.50;;;21.70;76.10;;;;;;9212423;19;20014;-68
2023/09/04 09:01:45;;;;;;;5.32;3.05;;;22.00;76.00;;;;;;9217571;19;20013;-68
2023/09/04 09:04:55;;;;;;;7.97;3.63;;;22.10;76.10;;;;;;9216478;19;20018;-67
2023/09/04 09:08:04;;;;;;;7.00;3.45;;;22.40;76.00;;;;;;9218269;19;20006;-69
2023/09/04 09:11:10;;;;;;;9.02;3.55;;;22.60;76.40;;;;;;9214797;19;20022;-69
2023/09/04 09:14:18;;;;;;;5.50;3.42;;;22.90;76.30;;;;;;9216728;19;20018;-68
2023/09/04 09:17:23;;;;;;;9.13;3.60;;;23.10;76.10;;;;;;9213797;19;20078;-68
2023/09/04 09:20:39;;;;;;;7.15;3.28;;;23.30;76.80;;;;;;9213204;19;20017;-69
2023/09/04 09:23:44;;;;;;;10.37;3.10;;;23.60;77.30;;;;;;9212684;19;20018;-68
2023/09/04 09:26:53;;;;;;;6.55;3.35;;;23.70;75.30;;;;;;9207383;19;20074;-68
2023/09/04 09:29:59;;;;;;;4.95;3.17;;;23.90;75.20;;;;;;9213019;19;20018;-69
2023/09/04 09:33:12;;;;;;;5.55;3.13;;;24.10;75.30;;;;;;9210452;19;20368;-69
2023/09/04 09:36:20;;;;;;;3.83;2.40;;;24.20;75.50;;;;;;9211419;19;20010;-67
2023/09/04 09:39:29;;;;;;;3.22;2.60;;;24.50;77.40;;;;;;9214305;19;20016;-67
2023/09/04 09:42:34;;;;;;;4.00;2.38;;;24.60;76.70;;;;;;9202554;19;20026;-69
2023/09/04 09:45:42;;;;;;;12.15;2.92;;;24.70;74.30;;;;;;9176739;19;20015;-69
2023/09/04 09:48:48;;;;;;;4.28;2.35;;;24.80;73.80;;;;;;9175082;19;20026;-68
2023/09/04 09:51:59;;;;;;;4.25;2.50;;;25.00;75.80;;;;;;9175639;19;20536;-66
2023/09/04 09:55:05;;;;;;;4.28;2.22;;;25.20;76.20;;;;;;9174474;19;20018;-66
2023/09/04 09:58:13;;;;;;;6.22;2.20;;;25.30;74.30;;;;;;9178927;19;20030;-67
2023/09/04 10:01:20;;;;;;;6.13;2.30;;;25.50;74.20;;;;;;9175466;19;20026;-67
2023/09/04 10:04:28;;;;;;;5.82;2.63;;;25.60;74.60;;;;;;9177458;19;20026;-68
2023/09/04 10:07:36;;;;;;;4.50;2.70;;;25.80;77.00;;;;;;9172176;19;20029;-68
2023/09/04 10:10:45;;;;;;;5.32;2.60;;;26.00;72.60;;;;;;9174357;19;20025;-68
2023/09/04 10:13:56;;;;;;;3.65;2.22;;;26.20;72.90;;;;;;9173032;19;20086;-68
2023/09/04 10:17:08;;;;;;;4.90;2.30;;;26.40;73.40;;;;;;9175777;19;20014;-70
2023/09/04 10:20:15;;;;;;;5.30;2.10;;;26.50;75.90;;;;;;9177206;19;20488;-68
2023/09/04 10:23:28;;;;;;;4.90;2.05;;;26.60;77.00;;;;;;9175499;19;20494;-68
2023/09/04 10:26:41;;;;;;;4.90;1.75;;;27.50;69.90;;;;;;9173566;19;20015;-67
2023/09/04 10:29:53;;;;;;;5.97;2.10;;;27.00;69.10;;;;;;9174438;19;20036;-67
2023/09/04 10:32:59;;;;;;;3.20;1.83;;;27.00;69.00;;;;;;9174032;19;20018;-68
2023/09/04 10:36:07;;;;;;;2.90;1.95;;;27.20;69.90;;;;;;9174327;19;20464;-67
2023/09/04 10:39:16;;;;;;;4.63;2.30;;;27.30;71.20;;;;;;9175151;19;20022;-69
2023/09/04 10:42:27;;;;;;;2.17;1.60;;;27.30;69.30;;;;;;9173336;19;20011;-67
2023/09/04 10:45:34;;;;;;;3.90;1.80;;;27.50;69.40;;;;;;9174945;19;20018;-67
2023/09/04 10:48:45;;;;;;;4.82;2.58;;;27.70;69.70;;;;;;9172389;19;20021;-68
2023/09/04 10:51:50;;;;;;;2.88;1.98;;;27.80;69.60;;;;;;9173159;19;20014;-69
2023/09/04 10:55:15;;;;;;;2.80;1.70;;;27.90;70.50;;;;;;9171242;19;20015;-67
2023/09/04 10:58:20;;;;;;;4.72;2.00;;;27.60;78.90;;;;;;9173173;19;20030;-68
2023/09/04 11:01:38;;;;;;;3.08;1.60;;;28.10;74.60;;;;;;9174803;19;20387;-69
2023/09/04 11:04:49;;;;;;;3.42;1.73;;;28.20;75.10;;;;;;9177044;19;20043;-68
2023/09/04 11:07:56;;;;;;;3.28;1.63;;;28.30;74.80;;;;;;9178143;19;20015;-68
2023/09/04 11:11:07;;;;;;;5.88;1.75;;;28.40;75.40;;;;;;9178493;19;20022;-69
2023/09/04 11:14:14;;;;;;;2.70;1.60;;;28.50;76.50;;;;;;9176106;19;20023;-70
2023/09/04 11:17:20;;;;;;;3.20;1.70;;;28.60;75.60;;;;;;9178431;19;20018;-68
2023/09/04 11:20:30;;;;;;;4.30;1.75;;;28.60;75.10;;;;;;9179830;19;20033;-69
2023/09/04 11:23:36;;;;;;;7.00;2.00;;;28.60;74.80;;;;;;9179658;19;20013;-68
2023/09/04 11:26:46;;;;;;;2.58;1.50;;;28.70;75.60;;;;;;9173272;19;20021;-69
2023/09/04 11:29:52;;;;;;;3.72;1.70;;;28.80;82.70;;;;;;9178531;19;20018;-68
2023/09/04 11:33:00;;;;;;;2.08;1.23;;;28.90;85.70;;;;;;9176110;19;20019;-68
2023/09/04 11:36:08;;;;;;;2.55;1.58;;;28.80;72.80;;;;;;9175996;19;20376;-70
2023/09/04 11:39:16;;;;;;;2.17;1.30;;;29.00;74.40;;;;;;9176427;19;20021;-68
2023/09/04 11:42:27;;;;;;;1.75;1.08;;;29.00;72.20;;;;;;9177627;19;20017;-69
2023/09/04 11:45:32;;;;;;;4.35;1.40;;;29.60;73.40;;;;;;9175284;19;20023;-67
2023/09/04 11:48:40;;;;;;;3.67;1.10;;;29.00;67.90;;;;;;9178579;19;20025;-68
2023/09/04 11:51:46;;;;;;;2.90;1.40;;;29.00;67.80;;;;;;9176558;19;20066;-67
2023/09/04 11:54:55;;;;;;;2.42;1.50;;;29.00;66.90;;;;;;9174295;19;20725;-68
2023/09/04 11:58:04;;;;;;;1.50;1.15;;;29.10;66.80;;;;;;9176286;19;20015;-69
2023/09/04 12:01:12;;;;;;;1.63;1.13;;;29.10;66.30;;;;;;9176671;19;20018;-68
2023/09/04 12:04:17;;;;;;;2.60;1.45;;;29.20;66.60;;;;;;9178321;19;20006;-69
2023/09/04 12:07:25;;;;;;;1.23;1.00;;;29.20;66.90;;;;;;9173611;19;20007;-68
2023/09/04 12:10:30;;;;;;;1.77;1.08;;;29.20;66.80;;;;;;9174971;19;20022;-67
2023/09/04 12:13:43;;;;;;;2.60;1.35;;;29.30;66.60;;;;;;9173710;19;20019;-67
2023/09/04 12:16:51;;;;;;;2.80;1.20;;;29.30;66.40;;;;;;9174462;19;20022;-68
2023/09/04 12:19:58;;;;;;;3.08;1.48;;;29.50;67.20;;;;;;9175802;19;20017;-68
2023/09/04 12:23:04;;;;;;;2.90;1.60;;;29.50;65.00;;;;;;9177722;19;20408;-68
2023/09/04 12:26:13;;;;;;;2.13;1.70;;;29.50;62.80;;;;;;9171711;19;20475;-67
2023/09/04 12:29:21;;;;;;;4.35;1.48;;;29.50;62.30;;;;;;9175143;19;20018;-68
2023/09/04 12:32:29;;;;;;;1.45;1.00;;;29.60;62.60;;;;;;9172267;19;20376;-69
2023/09/04 12:35:34;;;;;;;1.23;1.05;;;29.80;61.60;;;;;;9173020;19;20055;-68
2023/09/04 12:38:44;;;;;;;1.15;0.95;;;29.60;61.10;;;;;;9175054;19;20018;-68
2023/09/04 12:41:56;;;;;;;3.10;2.00;;;29.80;60.60;;;;;;9173094;19;20022;-70
2023/09/04 12:45:07;;;;;;;2.05;1.20;;;29.80;60.00;;;;;;9173674;19;20010;-68
2023/09/04 12:48:16;;;;;;;3.92;1.02;;;29.70;60.10;;;;;;9172329;19;20025;-67
2023/09/04 12:51:25;;;;;;;3.55;1.75;;;29.70;60.10;;;;;;9172759;19;20352;-68
2023/09/04 12:54:30;;;;;;;2.65;1.23;;;29.80;60.40;;;;;;9170931;19;20456;-68
2023/09/04 12:57:37;;;;;;;1.83;1.13;;;29.80;60.40;;;;;;9173649;19;20018;-70
2023/09/04 13:00:45;;;;;;;1.70;0.95;;;29.80;60.50;;;;;;9172942;19;20022;-68
2023/09/04 13:03:53;;;;;;;1.13;1.02;;;29.80;59.90;;;;;;9174243;19;20015;-71
2023/09/04 13:07:01;;;;;;;2.50;1.17;;;29.80;60.20;;;;;;9174708;19;20036;-69
2023/09/04 13:10:10;;;;;;;3.72;1.90;;;29.80;60.20;;;;;;9172978;19;20010;-73
2023/09/04 13:13:16;;;;;;;2.20;1.58;;;29.70;60.00;;;;;;9169441;19;20019;-68
2023/09/04 13:16:26;;;;;;;2.22;1.27;;;29.80;60.50;;;;;;9171138;19;20018;-68
2023/09/04 13:19:32;;;;;;;3.85;1.17;;;29.70;60.30;;;;;;9173354;19;20086;-68
2023/09/04 13:22:39;;;;;;;2.38;1.50;;;29.70;60.90;;;;;;9176998;19;20017;-67
2023/09/04 13:25:44;;;;;;;2.97;1.60;;;29.60;60.50;;;;;;9173057;19;20055;-69
2023/09/04 13:28:51;;;;;;;1.35;1.25;;;29.60;60.50;;;;;;9178874;19;20006;-68
2023/09/04 13:31:59;;;;;;;2.08;1.30;;;29.60;60.80;;;;;;9176539;19;20480;-67
2023/09/04 13:35:08;;;;;;;1.83;1.25;;;29.60;61.00;;;;;;9176515;19;20022;-68
2023/09/04 13:38:14;;;;;;;1.90;1.20;;;29.50;60.70;;;;;;9173370;19;20018;-67
2023/09/04 13:41:21;;;;;;;1.38;0.93;;;29.50;62.10;;;;;;9177630;19;20026;-68
2023/09/04 13:44:27;;;;;;;6.97;1.25;;;29.50;61.70;;;;;;9177897;19;20021;-67
2023/09/04 13:47:37;;;;;;;1.30;1.20;;;29.40;62.60;;;;;;9176270;19;20010;-67
2023/09/04 13:50:42;;;;;;;1.25;0.80;;;29.40;65.10;;;;;;9175157;19;20105;-68
2023/09/04 13:53:49;;;;;;;1.92;1.38;;;29.40;63.80;;;;;;9178080;19;20367;-67
2023/09/04 13:56:55;;;;;;;2.88;1.45;;;29.40;64.60;;;;;;9180653;19;20029;-67
2023/09/04 14:00:03;;;;;;;1.90;1.40;;;29.40;65.40;;;;;;9180056;19;20009;-67
2023/09/04 14:03:12;;;;;;;4.45;2.20;;;29.40;65.70;;;;;;9178501;19;20514;-66
2023/09/04 14:06:20;;;;;;;4.20;1.80;;;29.30;64.20;;;;;;9179798;19;20013;-65
2023/09/04 14:09:25;;;;;;;2.38;1.20;;;29.30;64.10;;;;;;9180434;19;20010;-68
2023/09/04 14:12:32;;;;;;;2.25;1.38;;;29.20;62.90;;;;;;9180281;19;20014;-67
2023/09/04 14:15:38;;;;;;;1.73;1.42;;;29.20;63.10;;;;;;9174533;19;20025;-69
2023/09/04 14:18:50;;;;;;;2.53;1.27;;;29.10;62.80;;;;;;9176904;19;20015;-68
2023/09/04 14:22:07;;;;;;;3.95;1.73;;;29.10;62.90;;;;;;9177428;19;20041;-68
2023/09/04 14:25:14;;;;;;;2.25;0.80;;;29.10;64.90;;;;;;9176742;19;20010;-68
2023/09/04 14:28:20;;;;;;;6.30;1.63;;;28.90;60.80;;;;;;9169652;19;20018;-67
2023/09/04 14:31:27;;;;;;;2.88;1.75;;;28.90;62.50;;;;;;9175560;19;20014;-69
2023/09/04 14:34:36;;;;;;;1.73;1.30;;;28.90;61.90;;;;;;9173805;19;20541;-68
2023/09/04 14:37:44;;;;;;;4.72;1.42;;;28.90;62.90;;;;;;9176117;19;20010;-70
2023/09/04 14:40:49;;;;;;;1.58;1.08;;;28.70;63.10;;;;;;9176141;19;20110;-69
2023/09/04 14:43:57;;;;;;;2.95;1.20;;;28.80;67.00;;;;;;9174404;19;20010;-69
2023/09/04 14:47:02;;;;;;;5.63;3.50;;;28.80;63.40;;;;;;9175897;19;20019;-69
2023/09/04 14:50:13;;;;;;;5.35;2.70;;;28.70;64.40;;;;;;9174035;19;20018;-69
2023/09/04 14:53:18;;;;;;;2.28;1.40;;;28.70;62.90;;;;;;9176246;19;20010;-66
2023/09/04 14:56:27;;;;;;;2.13;1.17;;;28.60;63.70;;;;;;9173323;19;20006;-66
2023/09/04 14:59:32;;;;;;;1.20;1.00;;;28.60;62.20;;;;;;9175980;19;20124;-66
2023/09/04 15:02:40;;;;;;;2.97;1.50;;;28.60;65.30;;;;;;9176585;19;20025;-66
2023/09/04 15:05:48;;;;;;;3.80;1.00;;;28.60;69.00;;;;;;9174992;19;20122;-66
2023/09/04 15:08:56;;;;;;;1.50;1.30;;;28.10;68.80;;;;;;9179514;19;20010;-65
2023/09/04 15:12:05;;;;;;;2.08;1.45;;;28.50;68.10;;;;;;9178298;19;20010;-66
2023/09/04 15:15:13;;;;;;;2.58;1.30;;;29.10;67.40;;;;;;9177048;19;20018;-64
2023/09/04 15:18:21;;;;;;;3.10;1.27;;;28.90;70.90;;;;;;9175675;19;20548;-67
2023/09/04 15:21:32;;;;;;;2.42;1.58;;;28.40;68.60;;;;;;9173769;19;20471;-65
2023/09/04 15:24:37;;;;;;;3.17;1.80;;;28.30;68.60;;;;;;9174380;19;20025;-66
2023/09/04 15:27:45;;;;;;;3.88;1.70;;;28.30;68.60;;;;;;9164183;19;20021;-65
2023/09/04 15:30:50;;;;;;;7.10;2.42;;;28.20;68.00;;;;;;9168129;19;20027;-65
2023/09/04 15:33:57;;;;;;;2.03;1.50;;;28.20;69.60;;;;;;9169281;19;20037;-67
2023/09/04 15:37:06;;;;;;;3.70;1.77;;;28.20;67.80;;;;;;9178107;19;20014;-67
2023/09/04 15:40:14;;;;;;;2.45;1.30;;;28.20;70.60;;;;;;9176763;19;20692;-67
2023/09/04 15:43:20;;;;;;;2.53;1.50;;;28.40;68.80;;;;;;9179189;19;20014;-67
2023/09/04 15:46:28;;;;;;;2.53;1.60;;;28.20;70.30;;;;;;9177882;19;20037;-67
2023/09/04 15:49:33;;;;;;;2.80;1.85;;;27.70;68.30;;;;;;9178655;19;20105;-66
2023/09/04 15:52:43;;;;;;;4.25;1.70;;;28.10;68.30;;;;;;9175441;19;20678;-67
2023/09/04 15:55:54;;;;;;;2.63;1.45;;;28.40;71.60;;;;;;9175034;19;20067;-67
2023/09/04 15:59:02;;;;;;;;;;;28.00;69.10;;;;;;9176210;19;20015;-65
2023/09/04 16:02:07;;;;;;;2.53;1.63;;;27.90;70.50;;;;;;9176853;19;19914;-65
2023/09/04 16:05:15;;;;;;;12.00;1.73;;;27.80;68.00;;;;;;9177314;19;20014;-66
2023/09/04 16:08:23;;;;;;;2.67;1.45;;;27.80;69.60;;;;;;9178163;19;20382;-65
2023/09/04 16:11:31;;;;;;;3.50;1.50;;;27.80;73.10;;;;;;9175862;19;20014;-66
2023/09/04 16:14:36;;;;;;;2.70;1.70;;;27.70;74.10;;;;;;9177512;19;20467;-66